createdAt,value
2023-03-29T00:02:14.065Z,4.92
2023-03-29T00:04:41.500Z,4.83
2023-03-29T00:07:09.080Z,4.93
2023-03-29T00:09:36.042Z,4.76
2023-03-29T00:12:04.042Z,4.82
2023-03-29T00:14:31.294Z,4.82
2023-03-29T00:16:59.317Z,4.84
2023-03-29T00:19:26.481Z,4.88
2023-03-29T00:21:53.367Z,4.88
2023-03-29T00:24:21.525Z,4.90
2023-03-29T00:26:48.851Z,4.87
2023-03-29T00:29:16.202Z,4.86
2023-03-29T00:31:46.100Z,4.85
2023-03-29T00:34:13.034Z,4.87
2023-03-29T00:36:40.547Z,4.90
2023-03-29T00:39:07.554Z,4.85
2023-03-29T00:41:34.680Z,4.91
2023-03-29T00:44:04.782Z,4.87
2023-03-29T00:46:32.585Z,4.93
2023-03-29T00:49:07.347Z,4.86
2023-03-29T00:51:37.567Z,4.91
2023-03-29T00:54:06.751Z,4.89
2023-03-29T00:56:40.050Z,4.87
2023-03-29T00:59:28.421Z,4.89
2023-03-29T01:02:02.850Z,4.90
2023-03-29T01:04:40.886Z,4.78
2023-03-29T01:07:22.559Z,4.82
2023-03-29T01:09:56.239Z,4.87
2023-03-29T01:12:30.157Z,4.88
2023-03-29T01:15:04.400Z,4.87
2023-03-29T01:17:31.898Z,4.88
2023-03-29T01:20:19.385Z,4.84
2023-03-29T01:23:14.255Z,4.96
2023-03-29T01:25:57.975Z,4.90
2023-03-29T01:28:34.351Z,4.79
2023-03-29T01:31:23.337Z,4.80
2023-03-29T01:33:58.933Z,4.75
2023-03-29T01:36:41.613Z,4.79
2023-03-29T01:39:08.621Z,4.82
2023-03-29T01:42:15.780Z,4.72
2023-03-29T01:45:16.202Z,4.70
2023-03-29T01:47:56.223Z,4.70
2023-03-29T01:51:05.953Z,4.73
2023-03-29T01:53:57.181Z,4.48
2023-03-29T01:56:28.895Z,4.53
2023-03-29T01:59:02.553Z,4.49
2023-03-29T02:01:34.990Z,4.65
2023-03-29T02:04:06.284Z,4.60
2023-03-29T02:06:34.321Z,4.57
2023-03-29T02:09:01.710Z,4.64
2023-03-29T02:11:29.661Z,4.71
2023-03-29T02:13:57.851Z,4.71
2023-03-29T02:16:24.994Z,4.46
2023-03-29T02:18:54.355Z,4.63
2023-03-29T02:21:34.609Z,4.62
2023-03-29T02:24:06.674Z,4.68
2023-03-29T02:26:33.905Z,4.65
2023-03-29T02:29:01.192Z,4.68
2023-03-29T02:32:06.960Z,4.72
2023-03-29T02:34:42.081Z,4.78
2023-03-29T02:37:13.246Z,4.75
2023-03-29T02:39:41.386Z,4.77
2023-03-29T02:42:10.090Z,4.84
2023-03-29T02:44:40.941Z,4.78
2023-03-29T02:47:23.616Z,4.83
2023-03-29T02:49:50.731Z,4.81
2023-03-29T02:52:33.656Z,4.71
2023-03-29T02:55:03.357Z,4.83
2023-03-29T02:57:32.534Z,4.84
2023-03-29T03:00:01.198Z,4.72
2023-03-29T03:02:28.137Z,4.94
2023-03-29T03:04:55.224Z,4.98
2023-03-29T03:07:22.156Z,5.07
2023-03-29T03:09:49.192Z,5.27
2023-03-29T03:12:16.210Z,5.34
2023-03-29T03:14:43.369Z,5.23
2023-03-29T03:17:10.261Z,5.29
2023-03-29T03:19:37.127Z,5.29
2023-03-29T03:22:06.149Z,5.36
2023-03-29T03:24:32.994Z,5.10
2023-03-29T03:26:59.958Z,5.22
2023-03-29T03:29:26.816Z,5.26
2023-03-29T03:31:54.292Z,5.34
2023-03-29T03:34:21.387Z,5.37
2023-03-29T03:36:48.350Z,5.38
2023-03-29T03:39:15.194Z,5.34
2023-03-29T03:41:42.035Z,5.35
2023-03-29T03:44:08.928Z,5.34
2023-03-29T03:46:36.088Z,5.43
2023-03-29T03:49:03.169Z,5.45
2023-03-29T03:51:30.080Z,5.38
2023-03-29T03:53:56.933Z,5.43
2023-03-29T03:56:23.771Z,5.49
2023-03-29T03:58:50.614Z,5.48
2023-03-29T04:01:18.345Z,5.45
2023-03-29T04:03:46.064Z,5.51
2023-03-29T04:06:12.974Z,5.37
2023-03-29T04:08:40.718Z,5.45
2023-03-29T04:11:07.843Z,5.47
2023-03-29T04:13:35.010Z,5.51
2023-03-29T04:16:02.041Z,5.56
2023-03-29T04:18:29.036Z,5.62
2023-03-29T04:20:55.946Z,5.61
2023-03-29T04:23:22.767Z,5.59
2023-03-29T04:25:49.652Z,5.78
2023-03-29T04:28:16.634Z,5.77
2023-03-29T04:30:43.504Z,5.61
2023-03-29T04:33:10.587Z,5.61
2023-03-29T04:35:38.043Z,5.73
2023-03-29T04:38:04.874Z,5.74
2023-03-29T04:40:31.948Z,5.75
2023-03-29T04:43:00.281Z,5.83
2023-03-29T04:45:27.481Z,5.86
2023-03-29T04:47:59.934Z,5.87
2023-03-29T04:50:26.954Z,5.89
2023-03-29T04:52:53.808Z,6.01
2023-03-29T04:55:20.691Z,5.97
2023-03-29T04:57:47.525Z,6.02
2023-03-29T05:00:15.659Z,5.92
2023-03-29T05:02:46.450Z,5.87
2023-03-29T05:05:14.356Z,5.98
2023-03-29T05:07:41.331Z,5.89
2023-03-29T05:10:09.461Z,5.95
2023-03-29T05:12:37.008Z,5.97
2023-03-29T05:15:08.457Z,5.87
2023-03-29T05:17:35.635Z,5.90
2023-03-29T05:20:09.352Z,5.92
2023-03-29T05:22:36.761Z,5.96
2023-03-29T05:25:03.798Z,5.80
2023-03-29T05:27:30.964Z,5.76
2023-03-29T05:29:58.004Z,5.83
2023-03-29T05:32:24.981Z,5.87
2023-03-29T05:34:51.884Z,5.86
2023-03-29T05:37:19.421Z,5.92
2023-03-29T05:39:46.318Z,5.85
2023-03-29T05:42:15.720Z,5.83
2023-03-29T05:44:42.616Z,5.86
2023-03-29T05:47:09.453Z,5.83
2023-03-29T05:49:38.247Z,5.87
2023-03-29T05:52:06.896Z,5.89
2023-03-29T05:54:33.839Z,5.87
2023-03-29T05:57:00.699Z,5.80
2023-03-29T05:59:29.805Z,5.72
2023-03-29T06:01:57.071Z,5.82
2023-03-29T06:04:24.696Z,5.83
2023-03-29T06:06:53.232Z,5.83
2023-03-29T06:09:20.245Z,5.71
2023-03-29T06:11:47.829Z,5.88
2023-03-29T06:14:15.756Z,5.99
2023-03-29T06:16:43.442Z,5.89
2023-03-29T06:19:10.553Z,6.03
2023-03-29T06:21:37.428Z,6.04
2023-03-29T06:24:04.809Z,6.12
2023-03-29T06:26:31.724Z,6.18
2023-03-29T06:28:58.564Z,6.25
2023-03-29T06:31:25.487Z,6.31
2023-03-29T06:33:52.360Z,6.35
2023-03-29T06:36:20.371Z,6.40
2023-03-29T06:38:47.388Z,6.40
2023-03-29T06:41:15.060Z,6.43
2023-03-29T06:43:42.062Z,6.46
2023-03-29T06:46:12.272Z,6.56
2023-03-29T06:48:41.145Z,6.64
2023-03-29T06:51:08.713Z,6.64
2023-03-29T06:53:36.880Z,6.68
2023-03-29T06:56:09.474Z,6.67
2023-03-29T06:58:37.002Z,6.81
2023-03-29T07:01:04.870Z,6.89
2023-03-29T07:03:35.106Z,6.87
2023-03-29T07:06:09.947Z,7.01
2023-03-29T07:08:43.957Z,7.03
2023-03-29T07:11:13.271Z,7.07
2023-03-29T07:13:42.745Z,7.10
2023-03-29T07:16:14.033Z,7.16
2023-03-29T07:18:43.120Z,7.17
2023-03-29T07:21:12.577Z,7.23
2023-03-29T07:23:40.858Z,7.11
2023-03-29T07:26:08.699Z,7.31
2023-03-29T07:28:37.692Z,7.30
2023-03-29T07:31:11.264Z,7.17
2023-03-29T07:33:39.479Z,7.41
2023-03-29T07:36:07.178Z,7.42
2023-03-29T07:38:34.180Z,7.48
2023-03-29T07:41:06.971Z,7.59
2023-03-29T07:43:34.728Z,7.64
2023-03-29T07:46:06.491Z,7.66
2023-03-29T07:48:34.025Z,7.71
2023-03-29T07:51:01.673Z,7.71
2023-03-29T07:53:29.921Z,7.74
2023-03-29T07:55:57.268Z,7.86
2023-03-29T07:58:24.285Z,7.81
2023-03-29T08:00:51.164Z,8.02
2023-03-29T08:03:18.313Z,8.12
2023-03-29T08:05:45.293Z,8.22
2023-03-29T08:08:12.601Z,8.30
2023-03-29T08:10:39.689Z,8.29
2023-03-29T08:13:10.073Z,8.36
2023-03-29T08:15:39.630Z,8.39
2023-03-29T08:18:08.230Z,8.50
2023-03-29T08:20:35.182Z,8.48
2023-03-29T08:23:02.108Z,8.58
2023-03-29T08:25:29.099Z,8.66
2023-03-29T08:27:56.076Z,8.71
2023-03-29T08:30:22.929Z,8.73
2023-03-29T08:32:52.955Z,8.92
2023-03-29T08:35:21.475Z,8.92
2023-03-29T08:37:48.264Z,8.90
2023-03-29T08:40:26.560Z,9.04
2023-03-29T08:43:11.442Z,9.02
2023-03-29T08:45:56.205Z,9.09
2023-03-29T08:48:42.513Z,9.12
2023-03-29T08:51:29.719Z,9.15
2023-03-29T08:54:04.388Z,9.26
2023-03-29T08:56:35.556Z,9.21
2023-03-29T08:59:02.774Z,9.22
2023-03-29T09:01:35.608Z,9.33
2023-03-29T09:04:12.116Z,9.47
2023-03-29T09:06:41.761Z,9.52
2023-03-29T09:09:35.055Z,9.64
2023-03-29T09:12:16.930Z,9.68
2023-03-29T09:15:15.679Z,9.89
2023-03-29T09:17:59.373Z,9.96
2023-03-29T09:20:45.065Z,10.05
2023-03-29T09:23:34.414Z,10.09
2023-03-29T09:26:34.193Z,10.22
2023-03-29T09:29:50.437Z,10.33
2023-03-29T09:32:47.033Z,10.56
2023-03-29T09:35:18.850Z,10.71
2023-03-29T09:37:48.165Z,10.83
2023-03-29T09:40:25.472Z,10.92
2023-03-29T09:42:55.209Z,11.12
2023-03-29T09:45:22.183Z,11.18
2023-03-29T09:48:10.676Z,11.22
2023-03-29T09:50:43.946Z,11.20
2023-03-29T09:53:11.021Z,11.24
2023-03-29T09:55:40.368Z,11.33
2023-03-29T09:58:24.056Z,11.46
2023-03-29T10:00:51.728Z,11.62
2023-03-29T10:03:27.648Z,11.67
2023-03-29T10:05:58.875Z,11.91
2023-03-29T10:08:36.089Z,12.06
2023-03-29T10:11:31.653Z,12.29
2023-03-29T10:14:21.625Z,12.46
2023-03-29T10:16:56.598Z,12.46
2023-03-29T10:19:35.124Z,12.58
2023-03-29T10:22:18.382Z,12.65
2023-03-29T10:24:51.865Z,12.52
2023-03-29T10:27:37.002Z,12.53
2023-03-29T10:30:13.374Z,12.63
2023-03-29T10:32:41.614Z,12.58
2023-03-29T10:35:16.995Z,12.68
2023-03-29T10:37:49.590Z,12.62
2023-03-29T10:40:22.693Z,12.56
2023-03-29T10:42:52.097Z,12.85
2023-03-29T10:45:26.108Z,12.93
2023-03-29T10:47:57.769Z,12.96
2023-03-29T10:50:32.777Z,12.93
2023-03-29T10:53:00.072Z,12.98
2023-03-29T10:56:12.442Z,13.12
2023-03-29T10:59:30.299Z,13.12
2023-03-29T11:02:15.425Z,13.31
2023-03-29T11:05:13.814Z,13.30
2023-03-29T11:08:10.035Z,13.33
2023-03-29T11:10:58.121Z,13.40
2023-03-29T11:13:53.539Z,13.49
2023-03-29T11:16:39.538Z,13.57
2023-03-29T11:19:28.337Z,13.68
2023-03-29T11:22:03.793Z,13.73
2023-03-29T11:25:04.677Z,13.78
2023-03-29T11:28:01.588Z,13.81
2023-03-29T11:30:37.081Z,13.84
2023-03-29T11:33:34.010Z,13.78
2023-03-29T11:36:29.849Z,13.75
2023-03-29T11:39:12.209Z,13.88
2023-03-29T11:41:44.273Z,13.89
2023-03-29T11:44:19.856Z,13.83
2023-03-29T11:46:57.132Z,13.99
2023-03-29T11:49:30.845Z,13.91
2023-03-29T11:52:14.921Z,14.03
2023-03-29T11:54:49.475Z,14.11
2023-03-29T11:57:31.464Z,14.13
2023-03-29T12:00:31.815Z,14.17
2023-03-29T12:03:07.051Z,14.23
2023-03-29T12:05:43.596Z,14.21
2023-03-29T12:08:35.965Z,14.26
2023-03-29T12:11:17.409Z,14.48
2023-03-29T12:14:06.126Z,14.56
2023-03-29T12:16:44.242Z,14.49
2023-03-29T12:19:22.114Z,14.53
2023-03-29T12:21:49.677Z,14.79
2023-03-29T12:24:18.327Z,14.90
2023-03-29T12:27:03.236Z,15.01
2023-03-29T12:29:39.012Z,15.04
2023-03-29T12:32:58.892Z,15.14
2023-03-29T12:35:59.219Z,15.28
2023-03-29T12:38:30.699Z,15.41
2023-03-29T12:41:02.158Z,15.51
2023-03-29T12:43:38.090Z,15.59
2023-03-29T12:46:20.199Z,15.59
2023-03-29T12:48:51.741Z,15.59
2023-03-29T12:51:23.660Z,15.85
2023-03-29T12:53:54.213Z,16.02
2023-03-29T12:56:24.413Z,15.98
2023-03-29T12:58:59.073Z,16.00
2023-03-29T13:01:37.925Z,15.93
2023-03-29T13:04:17.775Z,15.99
2023-03-29T13:06:47.636Z,16.13
2023-03-29T13:09:35.449Z,15.95
2023-03-29T13:12:10.867Z,15.58
2023-03-29T13:14:43.277Z,15.57
2023-03-29T13:17:26.688Z,15.38
2023-03-29T13:20:37.761Z,15.61
2023-03-29T13:23:41.199Z,15.56
2023-03-29T13:26:35.739Z,15.64
2023-03-29T13:29:24.201Z,15.63
2023-03-29T13:32:15.006Z,15.78
2023-03-29T13:35:02.844Z,15.87
2023-03-29T13:37:54.402Z,15.79
2023-03-29T13:40:32.042Z,15.98
2023-03-29T13:43:18.873Z,16.04
2023-03-29T13:46:21.450Z,16.15
2023-03-29T13:49:20.695Z,15.84
2023-03-29T13:51:53.955Z,16.08
2023-03-29T13:54:28.992Z,16.04
2023-03-29T13:57:17.453Z,16.16
2023-03-29T14:00:12.095Z,16.26
2023-03-29T14:02:51.757Z,16.29
2023-03-29T14:05:25.138Z,16.35
2023-03-29T14:07:54.723Z,16.31
2023-03-29T14:10:37.284Z,16.33
2023-03-29T14:13:04.743Z,16.29
2023-03-29T14:15:57.534Z,16.34
2023-03-29T14:18:26.712Z,16.38
2023-03-29T14:20:56.340Z,16.42
2023-03-29T14:23:27.320Z,16.48
2023-03-29T14:25:54.260Z,16.57
2023-03-29T14:28:25.163Z,16.56
2023-03-29T14:30:53.218Z,16.58
2023-03-29T14:33:34.821Z,16.75
2023-03-29T14:36:04.380Z,16.74
2023-03-29T14:38:32.592Z,16.75
2023-03-29T14:41:01.080Z,16.93
2023-03-29T14:43:31.501Z,16.97
2023-03-29T14:46:01.809Z,17.18
2023-03-29T14:48:29.235Z,17.30
2023-03-29T14:50:56.416Z,17.37
2023-03-29T14:53:24.499Z,17.36
2023-03-29T14:55:53.448Z,17.34
2023-03-29T14:58:46.738Z,17.28
2023-03-29T15:01:20.603Z,17.30
2023-03-29T15:04:11.209Z,17.32
2023-03-29T15:06:43.927Z,17.24
2023-03-29T15:09:35.144Z,17.34
2023-03-29T15:12:03.865Z,17.35
2023-03-29T15:14:34.244Z,17.48
2023-03-29T15:17:49.523Z,17.54
2023-03-29T15:20:26.590Z,17.58
2023-03-29T15:23:04.885Z,17.62
2023-03-29T15:25:47.979Z,17.63
2023-03-29T15:28:31.332Z,17.74
2023-03-29T15:31:10.320Z,17.94
2023-03-29T15:33:40.354Z,18.00
2023-03-29T15:36:10.189Z,18.16
2023-03-29T15:38:44.021Z,18.14
2023-03-29T15:41:14.667Z,18.21
2023-03-29T15:43:42.210Z,18.13
2023-03-29T15:46:12.413Z,18.16
2023-03-29T15:48:39.421Z,18.08
2023-03-29T15:51:07.204Z,18.11
2023-03-29T15:53:34.379Z,18.14
2023-03-29T15:56:02.852Z,17.99
2023-03-29T15:58:36.701Z,17.99
2023-03-29T16:01:35.836Z,17.86
2023-03-29T16:04:11.355Z,17.77
2023-03-29T16:06:39.128Z,17.77
2023-03-29T16:09:07.327Z,17.65
2023-03-29T16:11:35.280Z,17.76
2023-03-29T16:14:02.353Z,17.62
2023-03-29T16:16:29.463Z,17.64
2023-03-29T16:18:56.571Z,17.59
2023-03-29T16:21:25.671Z,17.40
2023-03-29T16:23:54.499Z,17.51
2023-03-29T16:26:38.255Z,17.26
2023-03-29T16:40:29.293Z,16.84
2023-03-29T16:55:05.832Z,16.78
2023-03-29T17:00:36.156Z,16.36
2023-03-29T17:06:46.789Z,16.27
2023-03-29T17:09:20.291Z,16.41
2023-03-29T17:12:29.325Z,16.03
2023-03-29T17:18:46.095Z,16.09
2023-03-29T17:21:13.071Z,16.03
2023-03-29T17:23:39.899Z,15.99
2023-03-29T17:26:07.297Z,15.88
2023-03-29T17:28:34.696Z,15.80
2023-03-29T17:31:09.823Z,15.69
2023-03-29T17:33:36.829Z,15.57
2023-03-29T17:36:06.272Z,15.58
2023-03-29T17:38:34.435Z,15.39
2023-03-29T17:41:03.059Z,15.35
2023-03-29T17:43:30.587Z,15.26
2023-03-29T17:45:57.741Z,15.23
2023-03-29T17:48:25.091Z,15.16
2023-03-29T17:50:52.140Z,15.01
2023-03-29T17:53:19.289Z,14.87
2023-03-29T17:55:46.171Z,14.84
2023-03-29T17:58:14.695Z,14.79
2023-03-29T18:00:41.547Z,14.73
2023-03-29T18:03:08.485Z,14.69
2023-03-29T18:05:36.322Z,14.63
2023-03-29T18:08:03.732Z,14.47
2023-03-29T18:10:30.822Z,14.42
2023-03-29T18:12:57.656Z,14.43
2023-03-29T18:15:24.538Z,14.32
2023-03-29T18:17:51.397Z,14.20
2023-03-29T18:20:18.621Z,14.18
2023-03-29T18:22:45.622Z,14.12
2023-03-29T18:25:13.131Z,14.05
2023-03-29T18:27:40.627Z,13.95
2023-03-29T18:30:08.946Z,13.88
2023-03-29T18:32:36.604Z,13.80
2023-03-29T18:35:03.880Z,13.75
2023-03-29T18:37:31.254Z,13.67
2023-03-29T18:39:58.202Z,13.57
2023-03-29T18:42:25.217Z,13.52
2023-03-29T18:44:52.079Z,13.43
2023-03-29T18:47:18.950Z,13.37
2023-03-29T18:49:45.987Z,13.35
2023-03-29T18:52:13.087Z,13.28
2023-03-29T18:54:40.044Z,13.09
2023-03-29T18:57:06.989Z,13.10
2023-03-29T18:59:36.205Z,12.98
2023-03-29T19:02:04.271Z,12.91
2023-03-29T19:04:31.238Z,12.92
2023-03-29T19:06:59.975Z,12.96
2023-03-29T19:09:27.955Z,12.98
2023-03-29T19:11:54.782Z,12.92
2023-03-29T19:14:24.357Z,12.79
2023-03-29T19:16:54.185Z,12.84
2023-03-29T19:19:23.523Z,12.89
2023-03-29T19:21:50.496Z,12.65
2023-03-29T19:24:17.960Z,12.82
2023-03-29T19:26:45.666Z,12.83
2023-03-29T19:29:12.712Z,12.80
2023-03-29T19:31:39.805Z,12.81
2023-03-29T19:34:09.768Z,13.02
2023-03-29T19:36:37.621Z,12.92
2023-03-29T19:39:05.837Z,12.98
2023-03-29T19:41:32.823Z,12.79
2023-03-29T19:43:59.758Z,12.94
2023-03-29T19:46:28.543Z,12.93
2023-03-29T19:48:56.377Z,12.93
2023-03-29T19:51:24.123Z,12.78
2023-03-29T19:53:51.020Z,12.84
2023-03-29T19:56:18.016Z,12.86
2023-03-29T19:58:44.989Z,12.80
2023-03-29T20:01:11.852Z,12.95
2023-03-29T20:03:40.439Z,12.89
2023-03-29T20:06:10.599Z,12.83
2023-03-29T20:08:39.088Z,13.11
2023-03-29T20:11:10.608Z,12.98
2023-03-29T20:13:39.346Z,13.09
2023-03-29T20:16:12.806Z,13.11
2023-03-29T20:18:39.995Z,13.12
2023-03-29T20:21:09.043Z,13.18
2023-03-29T20:23:36.585Z,13.19
2023-03-29T20:26:03.739Z,13.27
2023-03-29T20:28:30.704Z,13.27
2023-03-29T20:30:57.503Z,13.14
2023-03-29T20:33:24.400Z,13.23
2023-03-29T20:35:51.358Z,13.24
2023-03-29T20:38:18.292Z,13.29
2023-03-29T20:40:45.155Z,13.27
2023-03-29T20:43:13.722Z,13.29
2023-03-29T20:45:52.822Z,13.31
2023-03-29T20:48:24.928Z,13.29
2023-03-29T20:50:51.945Z,13.28
2023-03-29T20:53:20.813Z,13.27
2023-03-29T20:55:48.243Z,13.31
2023-03-29T20:58:16.112Z,13.32
2023-03-29T21:00:43.838Z,13.27
2023-03-29T21:03:11.331Z,13.21
2023-03-29T21:05:39.078Z,13.27
2023-03-29T21:08:06.383Z,13.21
2023-03-29T21:10:33.512Z,13.22
2023-03-29T21:13:00.759Z,13.20
2023-03-29T21:15:31.215Z,13.18
2023-03-29T21:17:58.712Z,13.07
2023-03-29T21:20:26.073Z,13.16
2023-03-29T21:22:52.963Z,13.18
2023-03-29T21:25:19.933Z,13.12
2023-03-29T21:27:46.845Z,13.07
2023-03-29T21:30:14.119Z,13.15
2023-03-29T21:32:41.754Z,13.13
2023-03-29T21:35:09.838Z,13.06
2023-03-29T21:37:36.904Z,13.01
2023-03-29T21:40:06.222Z,13.09
2023-03-29T21:42:34.562Z,12.99
2023-03-29T21:45:01.967Z,12.99
2023-03-29T21:47:29.326Z,13.01
2023-03-29T21:49:56.257Z,12.89
2023-03-29T21:52:23.198Z,12.98
2023-03-29T21:54:50.208Z,12.94
2023-03-29T21:57:17.091Z,12.99
2023-03-29T21:59:44.019Z,12.94
2023-03-29T22:02:11.021Z,12.94
2023-03-29T22:04:38.044Z,12.90
2023-03-29T22:07:06.253Z,13.03
2023-03-29T22:09:37.538Z,12.92
2023-03-29T22:12:05.025Z,12.99
2023-03-29T22:14:35.377Z,12.77
2023-03-29T22:17:06.285Z,12.93
2023-03-29T22:19:39.399Z,13.00
2023-03-29T22:22:07.393Z,12.99
2023-03-29T22:24:34.270Z,13.00
2023-03-29T22:27:01.136Z,12.88
2023-03-29T22:29:28.000Z,12.98
2023-03-29T22:31:54.851Z,13.01
2023-03-29T22:34:21.809Z,12.94
2023-03-29T22:36:48.737Z,13.03
2023-03-29T22:39:16.124Z,13.02
2023-03-29T22:41:43.080Z,13.06
2023-03-29T22:44:09.940Z,12.79
2023-03-29T22:46:36.866Z,12.98
2023-03-29T22:49:04.244Z,12.97
2023-03-29T22:51:31.306Z,12.96
2023-03-29T22:53:58.248Z,12.92
2023-03-29T22:56:25.624Z,12.97
2023-03-29T22:58:52.443Z,13.00
2023-03-29T23:01:19.316Z,12.98
2023-03-29T23:03:46.393Z,12.97
2023-03-29T23:06:13.269Z,12.84
2023-03-29T23:08:40.128Z,12.90
2023-03-29T23:11:07.557Z,12.84
2023-03-29T23:13:35.363Z,12.65
2023-03-29T23:16:03.906Z,12.82
2023-03-29T23:18:35.001Z,12.83
2023-03-29T23:21:05.272Z,12.80
2023-03-29T23:23:32.784Z,12.83
2023-03-29T23:25:59.657Z,12.78
2023-03-29T23:28:30.805Z,12.90
2023-03-29T23:31:06.986Z,12.90
2023-03-29T23:33:36.045Z,12.94
2023-03-29T23:36:06.267Z,12.91
2023-03-29T23:38:35.551Z,13.04
2023-03-29T23:41:06.513Z,13.03
2023-03-29T23:43:37.429Z,13.01
2023-03-29T23:46:14.265Z,13.05
2023-03-29T23:48:49.237Z,13.02
2023-03-29T23:51:23.697Z,12.94
2023-03-29T23:53:51.398Z,13.10
2023-03-29T23:56:18.259Z,13.11
2023-03-29T23:58:45.171Z,13.11
